Time;durP1;ratioP1;P1;durP2;ratioP2;P2;SDS_P1;SDS_P2;PMS_P1;PMS_P2;Temp;Humidity;BMP_temperature;BMP_pressure;BME280_temperature;BME280_humidity;BME280_pressure;Samples;Min_cycle;Max_cycle;Signal;HPM_P1;HPM_P2
2020/12/17 00:00:21;;;;;;;7.93;4.37;;;5.10;73.70;;;;;;5028275;28;20378;-86
2020/12/17 00:02:47;;;;;;;8.57;3.47;;;5.10;74.10;;;;;;5013185;28;20037;-85
2020/12/17 00:05:13;;;;;;;8.73;5.30;;;5.10;73.90;;;;;;5015624;28;20026;-85
2020/12/17 00:07:40;;;;;;;8.50;4.97;;;5.10;74.00;;;;;;5016336;28;20473;-85
2020/12/17 00:10:07;;;;;;;7.07;3.57;;;5.10;74.10;;;;;;5018208;28;20041;-83
2020/12/17 00:12:39;;;;;;;8.67;5.10;;;5.10;74.10;;;;;;5017567;28;20087;-82
2020/12/17 00:15:16;;;;;;;7.85;3.58;;;5.10;74.10;;;;;;5029637;28;20037;-82
2020/12/17 00:17:42;;;;;;;5.77;3.10;;;5.10;74.00;;;;;;5031201;28;20566;-83
2020/12/17 00:20:12;;;;;;;6.27;3.17;;;5.20;74.00;;;;;;5023611;28;20044;-83
2020/12/17 00:22:39;;;;;;;5.10;2.83;;;5.10;73.90;;;;;;5020709;28;20037;-83
2020/12/17 00:25:09;;;;;;;5.60;2.00;;;5.10;74.00;;;;;;5022167;28;20038;-82
2020/12/17 00:27:42;;;;;;;3.27;1.60;;;5.00;73.90;;;;;;5011877;28;20029;-82
2020/12/17 00:30:11;;;;;;;3.65;1.50;;;4.90;74.10;;;;;;5024683;28;20026;-82
2020/12/17 00:32:37;;;;;;;4.37;1.60;;;5.00;74.70;;;;;;5017910;28;20053;-82
2020/12/17 00:35:08;;;;;;;4.13;2.17;;;5.20;75.10;;;;;;5017036;28;20109;-82
2020/12/17 00:37:36;;;;;;;6.53;2.73;;;5.20;74.30;;;;;;5029334;28;20033;-83
2020/12/17 00:40:12;;;;;;;6.03;3.57;;;5.40;74.70;;;;;;5023688;28;20037;-83
2020/12/17 00:42:42;;;;;;;8.07;3.63;;;5.60;74.80;;;;;;5012108;28;20056;-83
2020/12/17 00:45:12;;;;;;;6.07;3.47;;;5.90;74.80;;;;;;5025190;28;20034;-83
2020/12/17 00:47:38;;;;;;;7.00;4.13;;;6.10;74.30;;;;;;5012668;28;20041;-82
2020/12/17 00:50:07;;;;;;;7.37;4.53;;;6.30;74.00;;;;;;5009257;28;20400;-82
2020/12/17 00:52:40;;;;;;;9.67;4.77;;;6.20;73.40;;;;;;4994079;28;20070;-82
2020/12/17 00:55:07;;;;;;;9.53;4.87;;;6.10;73.40;;;;;;5003904;28;20033;-83
2020/12/17 00:57:33;;;;;;;11.50;5.97;;;6.10;73.60;;;;;;5020636;28;20480;-84
2020/12/17 00:59:59;;;;;;;6.87;4.33;;;6.00;73.50;;;;;;5005439;28;20040;-84
2020/12/17 01:02:27;;;;;;;10.17;4.33;;;6.00;73.60;;;;;;5015270;28;20358;-83
2020/12/17 01:04:53;;;;;;;11.57;5.23;;;5.90;73.50;;;;;;5016315;28;20081;-83
2020/12/17 01:07:19;;;;;;;7.43;3.20;;;5.80;73.60;;;;;;5010806;28;20045;-82
2020/12/17 01:09:45;;;;;;;8.23;2.97;;;5.80;73.60;;;;;;5012559;28;20116;-82
2020/12/17 01:12:11;;;;;;;6.30;2.33;;;5.70;73.60;;;;;;5016553;28;20487;-82
2020/12/17 01:14:37;;;;;;;3.37;1.93;;;5.70;73.50;;;;;;5015901;28;20045;-82
2020/12/17 01:17:05;;;;;;;3.90;2.43;;;5.60;73.50;;;;;;5008461;28;20053;-83
2020/12/17 01:19:31;;;;;;;9.53;3.73;;;5.50;73.40;;;;;;5013464;28;20454;-83
2020/12/17 01:21:57;;;;;;;4.63;2.50;;;5.40;73.70;;;;;;5015430;28;20057;-82
2020/12/17 01:24:23;;;;;;;3.73;2.00;;;5.40;73.60;;;;;;5014267;28;20484;-82
2020/12/17 01:26:52;;;;;;;6.53;3.63;;;5.30;73.50;;;;;;5006375;28;20062;-82
2020/12/17 01:29:18;;;;;;;6.33;2.23;;;5.20;73.60;;;;;;5016038;28;20417;-82
2020/12/17 01:31:43;;;;;;;5.93;3.07;;;5.20;74.20;;;;;;5010391;28;20064;-82
2020/12/17 01:34:09;;;;;;;5.57;2.90;;;5.10;73.90;;;;;;5015229;28;20033;-82
2020/12/17 01:36:35;;;;;;;4.37;2.73;;;5.10;74.00;;;;;;5023848;28;20041;-82
2020/12/17 01:39:00;;;;;;;5.30;2.87;;;5.10;73.90;;;;;;5012630;28;20029;-83
2020/12/17 01:41:26;;;;;;;6.73;3.70;;;5.10;73.80;;;;;;5015928;28;20064;-83
2020/12/17 01:43:52;;;;;;;4.10;2.83;;;5.10;74.20;;;;;;5030070;28;20097;-83
2020/12/17 01:46:18;;;;;;;3.67;2.37;;;5.20;74.30;;;;;;5032069;28;20022;-83
2020/12/17 01:48:44;;;;;;;5.50;3.40;;;5.20;74.30;;;;;;5031394;28;20037;-83
2020/12/17 01:51:10;;;;;;;3.70;2.20;;;5.30;74.40;;;;;;5031378;28;20049;-83
2020/12/17 01:53:41;;;;;;;4.60;2.70;;;5.20;74.80;;;;;;5028121;28;20040;-83
2020/12/17 01:56:20;;;;;;;3.67;2.47;;;5.20;74.40;;;;;;5018652;28;20042;-83
2020/12/17 01:59:04;;;;;;;4.20;1.87;;;5.30;74.70;;;;;;5012789;28;20049;-83
2020/12/17 02:01:31;;;;;;;4.67;2.17;;;5.40;74.30;;;;;;5018370;28;20572;-83
2020/12/17 02:04:01;;;;;;;2.87;1.87;;;5.50;74.30;;;;;;5013435;28;20555;-82
2020/12/17 02:06:28;;;;;;;4.40;2.00;;;5.60;74.20;;;;;;5012648;28;20396;-83
2020/12/17 02:08:54;;;;;;;5.10;2.40;;;5.60;73.90;;;;;;5022878;28;20044;-82
2020/12/17 02:11:20;;;;;;;6.73;2.67;;;5.60;73.70;;;;;;5018584;28;20038;-83
2020/12/17 02:13:47;;;;;;;4.43;2.50;;;5.50;73.50;;;;;;5012970;28;20120;-83
2020/12/17 02:16:14;;;;;;;4.93;2.37;;;5.50;74.00;;;;;;5024183;28;20428;-82
2020/12/17 02:18:40;;;;;;;3.67;2.40;;;5.50;73.70;;;;;;5027178;28;20472;-82
2020/12/17 02:21:05;;;;;;;6.27;3.50;;;5.50;73.70;;;;;;5030891;28;20030;-82
2020/12/17 02:23:32;;;;;;;6.77;3.03;;;5.40;73.50;;;;;;5028673;28;20425;-82
2020/12/17 02:25:57;;;;;;;6.27;2.87;;;5.40;74.10;;;;;;5022037;28;20587;-82
2020/12/17 02:28:23;;;;;;;3.80;2.60;;;5.50;74.00;;;;;;5022621;28;20041;-82
2020/12/17 02:30:49;;;;;;;3.47;2.00;;;5.60;74.00;;;;;;5036653;28;20065;-82
2020/12/17 02:33:16;;;;;;;6.00;3.70;;;5.60;74.00;;;;;;5018736;28;20083;-82
2020/12/17 02:35:42;;;;;;;5.77;3.13;;;5.60;73.70;;;;;;5030615;28;20034;-82
2020/12/17 02:38:08;;;;;;;6.27;3.10;;;5.70;74.20;;;;;;5031991;28;20544;-82
2020/12/17 02:40:35;;;;;;;4.20;2.40;;;5.80;74.00;;;;;;5031130;28;20128;-82
2020/12/17 02:43:01;;;;;;;2.27;1.40;;;5.80;73.40;;;;;;5032955;28;20103;-83
2020/12/17 02:45:27;;;;;;;2.53;1.50;;;5.70;73.00;;;;;;5023333;28;20035;-82
2020/12/17 02:47:53;;;;;;;2.50;1.23;;;5.50;73.20;;;;;;5024022;28;20045;-82
2020/12/17 02:50:19;;;;;;;3.27;1.47;;;5.50;73.40;;;;;;5043525;28;20044;-82
2020/12/17 02:52:45;;;;;;;3.40;1.40;;;5.40;73.70;;;;;;5031010;28;20116;-83
2020/12/17 02:55:13;;;;;;;4.57;1.50;;;5.40;73.50;;;;;;5028298;28;20094;-82
2020/12/17 02:57:39;;;;;;;3.27;1.73;;;5.40;74.10;;;;;;5031281;28;20495;-82
2020/12/17 03:00:08;;;;;;;3.70;2.30;;;5.40;73.60;;;;;;5031107;28;20029;-82
2020/12/17 03:02:34;;;;;;;3.20;1.70;;;5.40;73.50;;;;;;5029672;28;20025;-82
2020/12/17 03:05:00;;;;;;;2.90;1.60;;;5.40;73.60;;;;;;5024229;28;20500;-83
2020/12/17 03:07:26;;;;;;;4.57;2.23;;;5.40;73.80;;;;;;5018618;28;20104;-82
2020/12/17 03:09:52;;;;;;;5.50;3.30;;;5.40;73.80;;;;;;5026503;28;20148;-82
2020/12/17 03:12:17;;;;;;;7.40;4.43;;;5.40;73.70;;;;;;5027091;28;20064;-81
2020/12/17 03:14:43;;;;;;;4.90;2.70;;;5.40;73.60;;;;;;5027325;28;20056;-82
2020/12/17 03:17:09;;;;;;;3.10;1.90;;;5.40;73.50;;;;;;5029498;28;20485;-82
2020/12/17 03:19:35;;;;;;;2.13;1.47;;;5.40;73.60;;;;;;5032099;28;20029;-81
2020/12/17 03:22:00;;;;;;;4.73;2.67;;;5.30;73.50;;;;;;5036160;28;20029;-81
2020/12/17 03:24:26;;;;;;;3.13;1.40;;;5.30;73.60;;;;;;5023779;28;20242;-82
2020/12/17 03:26:52;;;;;;;4.60;1.77;;;5.30;73.60;;;;;;5026803;28;20160;-82
2020/12/17 03:29:17;;;;;;;7.10;1.50;;;5.30;74.10;;;;;;5031089;28;20026;-82
2020/12/17 03:31:43;;;;;;;3.03;1.80;;;5.40;73.60;;;;;;5014935;28;20029;-82
2020/12/17 03:34:09;;;;;;;4.67;2.47;;;5.40;73.60;;;;;;5027734;28;20406;-82
2020/12/17 03:36:34;;;;;;;4.13;2.10;;;5.50;73.60;;;;;;5026849;28;20036;-83
2020/12/17 03:39:00;;;;;;;3.93;1.87;;;5.60;73.40;;;;;;5029031;28;20059;-83
2020/12/17 03:41:26;;;;;;;3.47;1.67;;;5.60;73.10;;;;;;5015573;28;20087;-83
2020/12/17 03:43:51;;;;;;;3.37;1.60;;;5.50;72.90;;;;;;5012756;28;20465;-83
2020/12/17 03:46:17;;;;;;;2.30;1.30;;;5.40;72.90;;;;;;5012417;28;20034;-83
2020/12/17 03:48:45;;;;;;;2.87;1.60;;;5.30;72.80;;;;;;5004985;28;20033;-83
2020/12/17 03:51:11;;;;;;;3.13;2.03;;;5.30;73.20;;;;;;5013099;28;20034;-82
2020/12/17 03:53:37;;;;;;;2.27;1.00;;;5.20;72.90;;;;;;5030854;28;20036;-82
2020/12/17 03:56:02;;;;;;;2.30;1.33;;;5.10;72.90;;;;;;5007417;28;20404;-81
2020/12/17 03:58:28;;;;;;;3.80;1.27;;;5.00;72.90;;;;;;5003693;28;20033;-82
2020/12/17 04:00:54;;;;;;;5.87;2.10;;;4.90;73.10;;;;;;5003066;28;20034;-81
2020/12/17 04:03:19;;;;;;;3.17;1.70;;;4.90;73.40;;;;;;5013529;28;20476;-82
2020/12/17 04:05:45;;;;;;;2.37;1.40;;;5.00;73.90;;;;;;5025176;28;20022;-82
2020/12/17 04:08:11;;;;;;;2.20;1.13;;;5.00;73.70;;;;;;4997337;28;20030;-82
2020/12/17 04:10:36;;;;;;;3.00;1.47;;;5.10;73.60;;;;;;5011856;28;20040;-82
2020/12/17 04:13:02;;;;;;;3.70;1.60;;;5.10;73.50;;;;;;5006753;28;20030;-82
2020/12/17 04:15:28;;;;;;;1.80;1.23;;;5.10;73.40;;;;;;5008769;28;20033;-82
2020/12/17 04:17:54;;;;;;;2.47;1.23;;;5.20;73.30;;;;;;5007504;28;20040;-82
2020/12/17 04:20:19;;;;;;;1.87;1.20;;;5.10;73.20;;;;;;5005876;28;20026;-82
2020/12/17 04:22:45;;;;;;;6.00;2.00;;;5.00;73.30;;;;;;5002589;28;20492;-82
2020/12/17 04:25:11;;;;;;;3.40;2.20;;;5.00;73.90;;;;;;5010215;28;20025;-81
2020/12/17 04:27:37;;;;;;;3.70;1.80;;;5.00;73.10;;;;;;5012655;28;20033;-82
2020/12/17 04:30:03;;;;;;;4.50;1.63;;;4.90;73.30;;;;;;5021062;28;20034;-82
2020/12/17 04:32:29;;;;;;;3.23;1.60;;;4.90;73.40;;;;;;4994055;28;20384;-81
2020/12/17 04:34:55;;;;;;;2.70;0.80;;;4.90;73.50;;;;;;5006981;28;20038;-83
2020/12/17 04:37:20;;;;;;;1.83;1.10;;;4.90;73.60;;;;;;5012476;28;20057;-82
2020/12/17 04:39:46;;;;;;;4.10;1.50;;;4.90;73.60;;;;;;5008349;28;20029;-83
2020/12/17 04:42:14;;;;;;;3.63;1.33;;;5.00;73.40;;;;;;5012221;28;20053;-82
2020/12/17 04:44:43;;;;;;;2.07;0.97;;;5.00;73.50;;;;;;5029498;28;20059;-83
2020/12/17 04:47:11;;;;;;;3.20;1.10;;;5.00;73.40;;;;;;5028622;28;20031;-83
2020/12/17 04:49:47;;;;;;;1.93;1.20;;;5.00;73.20;;;;;;5019525;28;20064;-83
2020/12/17 04:52:14;;;;;;;4.13;1.40;;;5.00;73.10;;;;;;5027685;28;20072;-83
2020/12/17 04:54:40;;;;;;;6.57;3.17;;;5.00;72.90;;;;;;5029002;28;20417;-82
2020/12/17 04:57:11;;;;;;;8.50;4.50;;;4.90;73.00;;;;;;5023100;28;20041;-83
2020/12/17 04:59:50;;;;;;;5.73;3.10;;;4.90;73.10;;;;;;5027585;28;20379;-83
2020/12/17 05:02:18;;;;;;;5.97;3.40;;;4.80;73.10;;;;;;5023253;28;20041;-82
2020/12/17 05:04:46;;;;;;;8.93;3.83;;;4.80;73.10;;;;;;5011634;28;20029;-82
2020/12/17 05:07:14;;;;;;;8.97;4.63;;;4.80;73.10;;;;;;5018197;28;20033;-82
2020/12/17 05:09:41;;;;;;;6.37;3.50;;;4.70;73.00;;;;;;5027678;28;20415;-79
2020/12/17 05:12:07;;;;;;;8.50;3.23;;;4.70;73.30;;;;;;5025585;28;20054;-81
2020/12/17 05:14:33;;;;;;;7.33;3.00;;;4.70;73.40;;;;;;5026848;28;20037;-81
2020/12/17 05:16:59;;;;;;;5.80;3.40;;;4.70;73.50;;;;;;5018048;28;20524;-81
2020/12/17 05:19:25;;;;;;;7.13;3.90;;;4.70;73.50;;;;;;5028582;28;20095;-82
2020/12/17 05:21:52;;;;;;;7.93;3.60;;;4.80;73.40;;;;;;5022965;28;20408;-81
2020/12/17 05:24:22;;;;;;;5.03;3.07;;;4.80;73.40;;;;;;5022023;28;20447;-81
2020/12/17 05:26:53;;;;;;;4.43;2.33;;;4.90;73.50;;;;;;5028186;28;20037;-81
2020/12/17 05:29:20;;;;;;;5.27;2.60;;;5.00;73.80;;;;;;5025344;28;20062;-82
2020/12/17 05:31:47;;;;;;;4.10;2.33;;;5.20;73.40;;;;;;5026818;28;20033;-82
2020/12/17 05:34:13;;;;;;;5.03;2.20;;;5.20;73.40;;;;;;5019576;28;20034;-82
2020/12/17 05:36:44;;;;;;;4.40;2.53;;;5.10;73.10;;;;;;5024591;28;20041;-82
2020/12/17 05:39:22;;;;;;;5.57;3.07;;;5.10;73.20;;;;;;5029567;28;20100;-82
2020/12/17 05:41:50;;;;;;;5.27;3.10;;;4.90;72.90;;;;;;5026303;28;20049;-81
2020/12/17 05:44:26;;;;;;;6.53;2.97;;;4.70;73.20;;;;;;5031709;28;20030;-82
2020/12/17 05:46:52;;;;;;;5.10;3.00;;;4.70;73.50;;;;;;5032534;28;20100;-81
2020/12/17 05:49:23;;;;;;;5.23;3.00;;;4.80;73.80;;;;;;5023316;28;20080;-82
2020/12/17 05:52:07;;;;;;;7.60;3.67;;;4.70;73.50;;;;;;5031196;28;20038;-82
2020/12/17 05:54:33;;;;;;;10.00;6.50;;;4.80;73.60;;;;;;5012115;28;20708;-82
2020/12/17 05:57:08;;;;;;;7.10;4.80;;;4.80;73.50;;;;;;5018922;28;20196;-82
2020/12/17 05:59:34;;;;;;;7.57;4.57;;;4.80;73.40;;;;;;5027759;28;20029;-82
2020/12/17 06:02:26;;;;;;;7.47;4.93;;;4.70;73.50;;;;;;5020776;28;20033;-82
2020/12/17 06:05:10;;;;;;;7.65;5.32;;;4.70;73.40;;;;;;5027001;28;20037;-82
2020/12/17 06:07:48;;;;;;;9.63;6.27;;;4.70;73.60;;;;;;5027699;28;20038;-82
2020/12/17 06:10:21;;;;;;;11.73;7.20;;;4.70;73.50;;;;;;5013331;28;20033;-83
2020/12/17 06:12:54;;;;;;;17.83;9.20;;;4.60;73.30;;;;;;5011477;28;20050;-82
2020/12/17 06:15:25;;;;;;;15.53;9.20;;;4.50;73.30;;;;;;5025595;28;20038;-82
2020/12/17 06:18:01;;;;;;;16.30;9.33;;;4.50;73.50;;;;;;5013855;28;20034;-82
2020/12/17 06:20:31;;;;;;;15.30;7.53;;;4.50;73.60;;;;;;5029989;28;20036;-82
2020/12/17 06:23:01;;;;;;;10.07;5.00;;;4.50;73.60;;;;;;5031326;28;20025;-82
2020/12/17 06:25:28;;;;;;;8.33;5.50;;;4.50;73.90;;;;;;5029908;28;20037;-82
2020/12/17 06:28:01;;;;;;;8.53;4.67;;;4.60;73.90;;;;;;5012999;28;20022;-82
2020/12/17 06:30:32;;;;;;;15.20;8.90;;;4.70;74.10;;;;;;5027582;28;20044;-82
2020/12/17 06:33:04;;;;;;;17.43;11.20;;;4.70;73.60;;;;;;5025390;28;20029;-82
2020/12/17 06:35:53;;;;;;;19.40;11.87;;;4.80;73.60;;;;;;5027758;28;20039;-82
2020/12/17 06:38:25;;;;;;;16.03;10.07;;;4.70;73.60;;;;;;5031049;28;20026;-82
2020/12/17 06:40:51;;;;;;;27.17;15.40;;;4.70;74.00;;;;;;5031242;28;20027;-81
2020/12/17 06:43:36;;;;;;;21.07;12.00;;;4.90;74.30;;;;;;5025966;28;20375;-81
2020/12/17 06:46:03;;;;;;;17.83;9.93;;;5.00;73.60;;;;;;5029302;28;20037;-81
2020/12/17 06:48:38;;;;;;;17.10;9.50;;;5.00;73.70;;;;;;5022613;28;20030;-81
2020/12/17 06:51:32;;;;;;;18.57;10.67;;;5.00;73.40;;;;;;5038748;28;20101;-83
2020/12/17 06:53:58;;;;;;;17.83;9.87;;;4.90;73.00;;;;;;5026513;28;20088;-81
2020/12/17 06:56:26;;;;;;;20.90;8.87;;;4.80;73.40;;;;;;5011501;28;20029;-82
2020/12/17 06:59:15;;;;;;;17.47;7.73;;;4.70;73.30;;;;;;5018979;28;20044;-82
2020/12/17 07:01:42;;;;;;;17.37;8.53;;;4.60;73.70;;;;;;5021690;28;20059;-82
2020/12/17 07:04:11;;;;;;;17.63;8.70;;;4.60;74.00;;;;;;5026236;28;20032;-82
2020/12/17 07:06:37;;;;;;;20.07;8.40;;;4.60;74.00;;;;;;5021887;28;20033;-82
2020/12/17 07:09:03;;;;;;;16.90;7.93;;;4.70;73.90;;;;;;5023040;28;20112;-82
2020/12/17 07:11:43;;;;;;;20.67;8.20;;;4.80;73.70;;;;;;5029197;28;20040;-82
2020/12/17 07:14:24;;;;;;;11.57;6.33;;;4.70;73.50;;;;;;5023809;28;20037;-82
2020/12/17 07:17:08;;;;;;;12.00;5.83;;;4.70;73.60;;;;;;5029743;28;20117;-82
2020/12/17 07:19:44;;;;;;;12.87;6.77;;;4.60;74.10;;;;;;5018554;28;20821;-83
2020/12/17 07:22:15;;;;;;;15.43;7.73;;;4.60;73.70;;;;;;5016351;28;20026;-83
2020/12/17 07:24:49;;;;;;;13.60;7.87;;;4.60;73.70;;;;;;5020358;28;22166;-82
2020/12/17 07:27:23;;;;;;;17.03;8.33;;;4.60;73.80;;;;;;5022560;28;20033;-83
2020/12/17 07:30:05;;;;;;;19.93;8.33;;;4.60;73.80;;;;;;5044037;28;20060;-82
2020/12/17 07:32:45;;;;;;;22.80;8.40;;;4.70;73.80;;;;;;5029645;28;20477;-82
2020/12/17 07:35:13;;;;;;;17.10;8.63;;;4.60;73.80;;;;;;5025387;28;20049;-84
2020/12/17 07:37:41;;;;;;;15.03;7.10;;;4.60;73.70;;;;;;5021150;28;20172;-82
2020/12/17 07:40:13;;;;;;;11.23;5.70;;;4.60;73.70;;;;;;5021609;28;20120;-82
2020/12/17 07:42:39;;;;;;;12.70;6.25;;;4.70;73.80;;;;;;5023453;28;20045;-83
2020/12/17 07:45:06;;;;;;;11.70;5.33;;;4.70;73.60;;;;;;5022110;28;20091;-82
2020/12/17 07:47:35;;;;;;;10.23;5.80;;;4.70;73.60;;;;;;5019941;28;20121;-82
2020/12/17 07:50:00;;;;;;;12.23;6.10;;;4.80;73.60;;;;;;5028953;28;20037;-82
2020/12/17 07:52:35;;;;;;;17.83;7.33;;;4.80;73.60;;;;;;5028651;28;20029;-82
2020/12/17 07:55:03;;;;;;;14.80;5.73;;;4.90;73.50;;;;;;5031055;28;20033;-82
2020/12/17 07:57:31;;;;;;;15.00;6.80;;;4.90;73.30;;;;;;5026439;28;20029;-82
2020/12/17 08:00:07;;;;;;;32.07;12.57;;;5.00;73.40;;;;;;5026603;28;20029;-82
2020/12/17 08:02:39;;;;;;;27.00;10.73;;;5.00;73.00;;;;;;5021245;28;20506;-82
2020/12/17 08:05:05;;;;;;;21.50;10.15;;;5.00;73.00;;;;;;5028571;28;20033;-82
2020/12/17 08:07:34;;;;;;;18.97;8.83;;;5.00;73.20;;;;;;5029746;28;20034;-83
2020/12/17 08:10:01;;;;;;;22.07;12.27;;;5.10;73.30;;;;;;5030440;28;20456;-82
2020/12/17 08:12:26;;;;;;;20.80;12.83;;;5.00;72.80;;;;;;5029442;28;20061;-83
2020/12/17 08:14:53;;;;;;;25.83;13.17;;;4.90;73.10;;;;;;5028774;28;20092;-83
2020/12/17 08:17:20;;;;;;;25.03;15.13;;;4.90;73.30;;;;;;5029866;28;20090;-83
2020/12/17 08:19:58;;;;;;;25.43;15.90;;;5.00;73.60;;;;;;5015152;28;20037;-83
2020/12/17 08:22:29;;;;;;;19.70;10.90;;;5.00;73.40;;;;;;5028470;28;20029;-82
2020/12/17 08:25:04;;;;;;;17.30;10.73;;;5.10;73.30;;;;;;5030392;28;20392;-83
2020/12/17 08:27:30;;;;;;;21.07;13.27;;;5.10;73.10;;;;;;5028699;28;20029;-83
2020/12/17 08:29:56;;;;;;;19.90;12.97;;;5.10;73.20;;;;;;5010803;28;20041;-83
2020/12/17 08:32:22;;;;;;;32.00;18.60;;;5.10;73.40;;;;;;5021408;28;20120;-82
2020/12/17 08:34:54;;;;;;;27.20;16.70;;;5.10;73.30;;;;;;5013936;28;20037;-82
2020/12/17 08:37:22;;;;;;;19.95;14.48;;;5.00;73.20;;;;;;5014138;28;20035;-82
2020/12/17 08:40:05;;;;;;;18.57;13.13;;;5.00;73.40;;;;;;5027467;28;20038;-83
2020/12/17 08:42:33;;;;;;;;;;;5.10;73.40;;;;;;5028607;28;20429;-83
2020/12/17 08:45:10;;;;;;;12.50;8.07;;;5.10;73.60;;;;;;5029172;28;20422;-83
2020/12/17 08:47:41;;;;;;;19.73;13.33;;;5.20;73.30;;;;;;5017350;28;20025;-83
2020/12/17 08:50:09;;;;;;;23.93;16.73;;;5.20;73.10;;;;;;5029015;28;20083;-83
2020/12/17 08:52:34;;;;;;;18.67;10.23;;;5.30;73.30;;;;;;5018564;28;20034;-82
2020/12/17 08:55:09;;;;;;;14.33;8.60;;;5.30;73.40;;;;;;5040745;28;20072;-82
2020/12/17 08:57:36;;;;;;;10.90;7.67;;;5.40;73.40;;;;;;5014184;28;20064;-82
2020/12/17 09:00:04;;;;;;;12.33;6.73;;;5.40;73.50;;;;;;5017400;28;20036;-82
2020/12/17 09:02:32;;;;;;;10.50;6.80;;;5.50;73.50;;;;;;5021638;28;20029;-82
2020/12/17 09:05:02;;;;;;;11.33;6.90;;;5.60;73.90;;;;;;5030480;28;20547;-83
2020/12/17 09:07:33;;;;;;;12.10;6.30;;;5.70;73.60;;;;;;5028903;28;20121;-82
2020/12/17 09:10:15;;;;;;;8.13;5.07;;;5.80;73.20;;;;;;5013773;28;20538;-83
2020/12/17 09:12:44;;;;;;;11.93;6.28;;;6.00;73.10;;;;;;5030168;28;20056;-83
2020/12/17 09:15:11;;;;;;;15.10;6.73;;;6.00;73.40;;;;;;5025953;28;20041;-83
2020/12/17 09:17:38;;;;;;;8.40;5.30;;;6.10;72.90;;;;;;5028068;28;20058;-83
2020/12/17 09:20:33;;;;;;;8.07;5.73;;;6.20;72.80;;;;;;5019178;28;20029;-83
2020/12/17 09:23:08;;;;;;;8.77;4.60;;;6.40;72.70;;;;;;5021147;28;20496;-83
2020/12/17 09:25:35;;;;;;;6.53;4.43;;;6.60;72.40;;;;;;5020851;28;20029;-83
2020/12/17 09:28:00;;;;;;;11.77;4.70;;;6.70;71.80;;;;;;5014218;28;20405;-83
2020/12/17 09:30:31;;;;;;;5.83;4.33;;;6.80;71.40;;;;;;5031324;28;20056;-83
2020/12/17 09:33:03;;;;;;;10.17;4.43;;;6.90;71.20;;;;;;5030571;28;20021;-82
2020/12/17 09:35:36;;;;;;;8.67;3.80;;;7.00;71.10;;;;;;5026500;28;20079;-83
2020/12/17 09:38:01;;;;;;;;;;;7.00;70.60;;;;;;5028729;28;20034;-83
2020/12/17 09:40:28;;;;;;;7.23;4.70;;;7.00;70.80;;;;;;5038459;28;19913;-83
2020/12/17 09:43:08;;;;;;;10.00;6.17;;;7.00;70.50;;;;;;5022033;28;20049;-83
2020/12/17 09:45:47;;;;;;;8.23;4.37;;;7.00;70.40;;;;;;5033010;28;20053;-83
2020/12/17 09:48:18;;;;;;;9.23;4.77;;;7.00;70.50;;;;;;5032653;28;20553;-82
2020/12/17 09:50:57;;;;;;;7.70;4.90;;;7.10;70.20;;;;;;5032777;28;20076;-83
2020/12/17 09:53:28;;;;;;;9.80;4.67;;;7.20;70.10;;;;;;5032707;28;20033;-83
2020/12/17 09:55:56;;;;;;;8.23;4.60;;;7.30;69.80;;;;;;5041186;28;20527;-83
2020/12/17 09:58:22;;;;;;;9.17;5.57;;;7.50;69.60;;;;;;5019972;28;20030;-83
2020/12/17 10:00:48;;;;;;;9.73;4.40;;;7.60;69.20;;;;;;5020485;28;20029;-83
2020/12/17 10:03:14;;;;;;;7.63;4.50;;;7.50;68.90;;;;;;5028722;28;20033;-83
2020/12/17 10:05:40;;;;;;;10.67;5.10;;;7.60;68.90;;;;;;5029221;28;20079;-83
2020/12/17 10:08:06;;;;;;;8.00;5.17;;;7.60;68.90;;;;;;5028948;28;20032;-83
2020/12/17 10:10:35;;;;;;;7.83;4.20;;;7.70;68.90;;;;;;5022159;28;20030;-83
2020/12/17 10:13:02;;;;;;;7.53;4.40;;;7.80;68.70;;;;;;5025894;28;20032;-83
2020/12/17 10:15:33;;;;;;;6.50;4.17;;;7.90;68.50;;;;;;5032005;28;20025;-83
2020/12/17 10:18:02;;;;;;;9.70;3.77;;;8.00;68.20;;;;;;5025089;28;20032;-83
2020/12/17 10:20:30;;;;;;;6.73;3.83;;;8.20;68.30;;;;;;5031400;28;20026;-83
2020/12/17 10:23:01;;;;;;;4.57;2.40;;;8.40;67.70;;;;;;5032838;28;20088;-83
2020/12/17 10:25:27;;;;;;;5.53;2.90;;;8.60;66.70;;;;;;5030501;28;20026;-83
2020/12/17 10:27:55;;;;;;;5.50;3.10;;;8.90;65.70;;;;;;5024543;28;20384;-83
2020/12/17 10:30:20;;;;;;;4.63;2.80;;;9.20;65.10;;;;;;5029697;28;20029;-83
2020/12/17 10:32:46;;;;;;;5.13;2.67;;;9.50;64.40;;;;;;5026096;28;20021;-83
2020/12/17 10:35:12;;;;;;;5.73;2.90;;;9.70;64.20;;;;;;5029552;28;20380;-83
2020/12/17 10:37:42;;;;;;;6.93;3.20;;;9.90;63.20;;;;;;5032653;28;20127;-83
2020/12/17 10:40:14;;;;;;;6.30;3.10;;;10.10;62.70;;;;;;5020755;28;20043;-83
2020/12/17 10:42:41;;;;;;;6.47;3.85;;;10.20;62.70;;;;;;5022954;28;20061;-83
2020/12/17 10:45:12;;;;;;;8.27;4.60;;;10.40;62.60;;;;;;5024886;28;20034;-83
2020/12/17 10:47:41;;;;;;;10.63;6.33;;;10.50;62.40;;;;;;5020874;28;20120;-83
2020/12/17 10:50:08;;;;;;;9.33;5.57;;;10.70;61.90;;;;;;5022300;28;20155;-83
2020/12/17 10:52:34;;;;;;;12.20;5.60;;;10.80;61.90;;;;;;5023156;28;20025;-83
2020/12/17 10:55:06;;;;;;;6.83;3.97;;;11.00;61.90;;;;;;5019428;28;20531;-83
2020/12/17 10:57:32;;;;;;;6.03;3.80;;;11.20;61.00;;;;;;5025003;28;20504;-83
2020/12/17 11:00:00;;;;;;;5.60;3.87;;;11.20;60.80;;;;;;5029524;28;20029;-83
2020/12/17 11:02:30;;;;;;;7.60;3.77;;;11.20;60.60;;;;;;5023408;28;20037;-83
2020/12/17 11:04:59;;;;;;;5.83;2.80;;;11.30;60.30;;;;;;5022157;28;20064;-84
2020/12/17 11:07:25;;;;;;;3.67;2.00;;;11.30;59.80;;;;;;5031893;28;20021;-83
2020/12/17 11:09:51;;;;;;;5.57;2.23;;;11.40;59.10;;;;;;5022014;28;20105;-83
2020/12/17 11:12:16;;;;;;;3.90;2.33;;;11.40;58.50;;;;;;5020122;28;20543;-82
2020/12/17 11:14:42;;;;;;;3.63;2.23;;;11.40;58.20;;;;;;5034730;28;20053;-83
2020/12/17 11:17:08;;;;;;;4.00;2.37;;;11.50;58.20;;;;;;5030582;28;20419;-83
2020/12/17 11:19:33;;;;;;;5.13;2.73;;;11.60;58.10;;;;;;5014399;28;20030;-83
2020/12/17 11:22:03;;;;;;;3.53;2.10;;;11.70;57.80;;;;;;5022384;28;20361;-82
2020/12/17 11:24:32;;;;;;;3.13;2.20;;;11.70;57.10;;;;;;5027462;28;20022;-83
2020/12/17 11:26:57;;;;;;;4.30;2.27;;;11.70;56.80;;;;;;5025959;28;20116;-83
2020/12/17 11:29:26;;;;;;;4.63;2.37;;;11.70;56.70;;;;;;5022097;28;20100;-83
2020/12/17 11:31:51;;;;;;;4.07;2.67;;;11.70;56.30;;;;;;5025901;28;20392;-83
2020/12/17 11:34:17;;;;;;;6.60;3.77;;;11.70;56.20;;;;;;5030136;28;20026;-83
2020/12/17 11:36:44;;;;;;;5.63;3.27;;;11.80;56.00;;;;;;5031098;28;20017;-83
2020/12/17 11:39:10;;;;;;;6.43;3.60;;;11.90;55.90;;;;;;5026550;28;20021;-82
2020/12/17 11:41:35;;;;;;;5.20;3.80;;;11.90;55.80;;;;;;5015422;28;20050;-83
2020/12/17 11:44:01;;;;;;;5.40;3.70;;;11.70;55.80;;;;;;5030466;28;20036;-83
2020/12/17 11:46:27;;;;;;;5.90;3.80;;;11.60;56.00;;;;;;5029465;28;20021;-83
2020/12/17 11:48:53;;;;;;;5.87;3.93;;;11.60;56.30;;;;;;5015766;28;20559;-83
2020/12/17 11:51:18;;;;;;;13.57;5.00;;;11.70;56.40;;;;;;5025612;28;20021;-83
2020/12/17 11:53:44;;;;;;;7.27;3.30;;;11.60;56.20;;;;;;5017695;28;20029;-83
2020/12/17 11:56:14;;;;;;;3.70;2.10;;;11.60;56.40;;;;;;5041448;28;20115;-83
2020/12/17 11:58:41;;;;;;;4.07;2.10;;;11.70;56.10;;;;;;5017564;28;20052;-83
2020/12/17 12:01:07;;;;;;;8.87;4.20;;;11.70;55.70;;;;;;5018983;28;20113;-83
2020/12/17 12:03:33;;;;;;;7.43;3.60;;;11.90;55.50;;;;;;5018393;28;20041;-83
2020/12/17 12:05:58;;;;;;;6.83;3.60;;;11.80;55.20;;;;;;5024657;28;20522;-83
2020/12/17 12:08:33;;;;;;;9.53;4.13;;;11.80;55.60;;;;;;5027542;28;20021;-83
2020/12/17 12:11:01;;;;;;;6.37;3.60;;;11.80;55.40;;;;;;5030386;28;20124;-83
2020/12/17 12:13:26;;;;;;;7.40;3.47;;;11.80;55.50;;;;;;5029623;28;20032;-83
2020/12/17 12:15:52;;;;;;;10.33;3.50;;;11.90;55.50;;;;;;5015373;28;20030;-81
2020/12/17 12:18:18;;;;;;;7.27;3.17;;;11.80;55.30;;;;;;5026838;28;20030;-83
2020/12/17 12:20:45;;;;;;;6.50;3.20;;;11.80;55.70;;;;;;5025248;28;20032;-83
2020/12/17 12:23:15;;;;;;;5.83;3.60;;;11.90;55.50;;;;;;5023555;28;20037;-82
2020/12/17 12:25:41;;;;;;;8.07;3.73;;;11.80;55.00;;;;;;5011125;28;20029;-82
2020/12/17 12:28:07;;;;;;;6.77;3.33;;;11.70;55.10;;;;;;5019342;28;20036;-82
2020/12/17 12:30:32;;;;;;;5.13;3.63;;;11.70;55.40;;;;;;5024500;28;20124;-83
2020/12/17 12:32:58;;;;;;;5.50;3.20;;;11.70;55.40;;;;;;5017421;28;20473;-82
2020/12/17 12:35:24;;;;;;;7.50;3.50;;;11.70;55.50;;;;;;5022969;28;20075;-82
2020/12/17 12:37:50;;;;;;;6.10;3.20;;;11.70;55.80;;;;;;5032202;28;20065;-83
2020/12/17 12:40:15;;;;;;;6.70;2.97;;;11.90;55.50;;;;;;5024135;28;20434;-83
2020/12/17 12:42:41;;;;;;;4.93;2.80;;;11.90;54.90;;;;;;5025431;28;20049;-83
2020/12/17 12:45:07;;;;;;;8.07;2.50;;;11.80;55.20;;;;;;5011959;28;20048;-82
2020/12/17 12:47:32;;;;;;;4.37;2.50;;;11.80;55.10;;;;;;5012311;28;20484;-83
2020/12/17 12:49:58;;;;;;;3.97;2.70;;;11.90;55.10;;;;;;5025083;28;20112;-83
2020/12/17 12:52:24;;;;;;;7.23;3.67;;;11.80;55.10;;;;;;5020828;28;20033;-82
2020/12/17 12:54:49;;;;;;;6.30;2.57;;;11.90;55.30;;;;;;5034035;28;20381;-83
2020/12/17 12:57:15;;;;;;;5.00;3.03;;;11.80;55.20;;;;;;5034534;28;20026;-83
2020/12/17 12:59:41;;;;;;;5.17;2.90;;;11.80;55.10;;;;;;5030140;28;20369;-83